aviador You're here:

KIXA Decoded Metar

in
Report Time2017-08-24 08:45:00
UTC Time2017-08-24 08:51:57
Flight Rules vfr VFR
WindCalm
Visibility9999 m
Phenomena:N/A
Clouds:Overcast 031 Hf
Expected CloudBase > 400 ft AGL from Temp-Dew spread
Ceiling3,100 ft
Temp22°C
Dew Point21°C (94% RH)
QNH1013 hPa
Raw Report
METAR KIXA 240845Z AUTO 00000KT 10SM OVC031 22/21 A2990 RMK AO2=

Extra information for KIXA:More info

Social comments